createdAt,value
2023-05-10T00:00:09.700Z,15.90
2023-05-10T00:05:09.628Z,16.02
2023-05-10T00:10:09.545Z,16.00
2023-05-10T00:15:09.512Z,15.75
2023-05-10T00:20:09.434Z,15.67
2023-05-10T00:25:12.796Z,15.72
2023-05-10T00:30:09.453Z,15.97
2023-05-10T00:35:09.412Z,16.05
2023-05-10T00:40:09.345Z,16.07
2023-05-10T00:45:09.255Z,16.11
2023-05-10T00:50:09.193Z,15.96
2023-05-10T00:55:09.024Z,15.75
2023-05-10T01:00:09.012Z,15.86
2023-05-10T01:05:08.988Z,15.75
2023-05-10T01:10:08.908Z,15.76
2023-05-10T01:15:08.862Z,16.00
2023-05-10T01:20:10.770Z,15.83
2023-05-10T01:25:08.825Z,15.67
2023-05-10T01:30:14.763Z,15.43
2023-05-10T01:35:09.671Z,15.51
2023-05-10T01:40:09.642Z,15.72
2023-05-10T01:45:08.669Z,15.84
2023-05-10T01:50:08.437Z,15.78
2023-05-10T01:55:08.463Z,15.78
2023-05-10T02:00:08.297Z,15.93
2023-05-10T02:05:08.287Z,15.71
2023-05-10T02:10:08.221Z,15.74
2023-05-10T02:15:08.295Z,15.72
2023-05-10T02:20:09.252Z,15.72
2023-05-10T02:25:08.204Z,15.87
2023-05-10T02:30:08.086Z,15.83
2023-05-10T02:35:07.920Z,15.78
2023-05-10T02:40:08.016Z,15.80
2023-05-10T02:45:07.821Z,15.76
2023-05-10T02:50:07.809Z,15.51
2023-05-10T02:55:07.738Z,15.53
2023-05-10T03:00:07.690Z,15.53
2023-05-10T03:05:07.586Z,15.39
2023-05-10T03:10:17.753Z,15.65
2023-05-10T03:15:07.654Z,15.64
2023-05-10T03:20:07.460Z,15.68
2023-05-10T03:25:07.596Z,15.65
2023-05-10T03:30:07.366Z,15.69
2023-05-10T03:35:07.340Z,15.65
2023-05-10T03:40:07.233Z,15.65
2023-05-10T03:45:07.148Z,15.69
2023-05-10T03:50:07.098Z,15.54
2023-05-10T03:55:07.032Z,15.64
2023-05-10T04:00:06.981Z,15.69
2023-05-10T04:05:10.359Z,15.59
2023-05-10T04:10:06.924Z,15.62
2023-05-10T04:15:06.864Z,15.71
2023-05-10T04:20:06.751Z,15.76
2023-05-10T04:25:06.704Z,15.56
2023-05-10T04:30:06.631Z,15.67
2023-05-10T04:35:06.567Z,15.69
2023-05-10T04:40:17.639Z,16.01
2023-05-10T04:45:06.492Z,15.86
2023-05-10T04:50:06.460Z,15.93
2023-05-10T04:55:06.415Z,15.74
2023-05-10T05:00:09.727Z,15.89
2023-05-10T05:05:06.291Z,15.71
2023-05-10T05:10:06.224Z,15.92
2023-05-10T05:15:09.064Z,16.08
2023-05-10T05:20:06.124Z,16.09
2023-05-10T05:25:06.425Z,15.93
2023-05-10T05:30:06.015Z,15.64
2023-05-10T05:35:05.970Z,16.12
2023-05-10T05:40:05.864Z,16.11
2023-05-10T05:45:05.913Z,16.28
2023-05-10T05:50:05.960Z,16.28
2023-05-10T05:55:05.974Z,16.39
2023-05-10T06:00:05.720Z,16.46
2023-05-10T06:05:05.660Z,16.48
2023-05-10T06:10:05.560Z,16.81
2023-05-10T06:15:05.464Z,17.01
2023-05-10T06:20:05.434Z,16.91
2023-05-10T06:25:05.406Z,16.85
2023-05-10T06:30:12.349Z,17.33
2023-05-10T06:35:06.262Z,17.51
2023-05-10T06:40:05.225Z,17.31
2023-05-10T06:45:05.218Z,16.83
2023-05-10T06:50:05.153Z,16.79
2023-05-10T06:55:05.029Z,16.91
2023-05-10T07:00:05.212Z,17.07
2023-05-10T07:05:04.973Z,17.14
2023-05-10T07:10:04.941Z,17.36
2023-05-10T07:15:04.961Z,17.55
2023-05-10T07:20:04.881Z,17.41
2023-05-10T07:25:04.804Z,17.34
2023-05-10T07:30:04.677Z,17.16
2023-05-10T07:35:04.693Z,17.08
2023-05-10T07:40:04.553Z,17.30
2023-05-10T07:45:04.496Z,17.06
2023-05-10T07:50:04.461Z,17.36
2023-05-10T07:55:04.359Z,17.31
2023-05-10T08:00:04.301Z,17.22
2023-05-10T08:05:04.301Z,17.25
2023-05-10T08:10:04.197Z,17.23
2023-05-10T08:15:04.175Z,17.75
2023-05-10T08:20:04.096Z,18.25
2023-05-10T08:25:04.035Z,18.12
2023-05-10T08:30:03.978Z,18.18
2023-05-10T08:35:03.931Z,18.23
2023-05-10T08:40:03.896Z,18.27
2023-05-10T08:45:03.955Z,18.42
2023-05-10T08:50:03.875Z,18.62
2023-05-10T08:55:03.777Z,18.63
2023-05-10T09:00:03.744Z,18.72
2023-05-10T09:05:03.844Z,19.04
2023-05-10T09:10:03.621Z,18.57
2023-05-10T09:15:03.522Z,18.05
2023-05-10T09:20:03.465Z,18.37
2023-05-10T09:25:03.418Z,18.32
2023-05-10T09:30:03.454Z,19.04
2023-05-10T09:35:03.353Z,18.21
2023-05-10T09:40:04.309Z,17.97
2023-05-10T09:45:03.176Z,18.78
2023-05-10T09:50:03.092Z,18.98
2023-05-10T09:55:03.038Z,19.04
2023-05-10T10:00:03.030Z,18.80
2023-05-10T10:05:02.981Z,17.95
2023-05-10T10:10:02.886Z,18.03
2023-05-10T10:15:02.843Z,17.34
2023-05-10T10:20:02.805Z,18.25
2023-05-10T10:25:02.735Z,19.08
2023-05-10T10:30:02.674Z,18.42
2023-05-10T10:35:02.598Z,18.12
2023-05-10T10:40:11.400Z,18.81
2023-05-10T10:45:02.488Z,18.84
2023-05-10T10:50:02.468Z,18.87
2023-05-10T10:55:02.449Z,18.44
2023-05-10T11:00:02.436Z,19.31
2023-05-10T11:05:02.370Z,19.13
2023-05-10T11:10:02.293Z,19.31
2023-05-10T11:15:02.207Z,18.76
2023-05-10T11:20:02.195Z,18.26
2023-05-10T11:25:02.145Z,18.35
2023-05-10T11:30:04.314Z,18.54
2023-05-10T11:35:01.987Z,19.06
2023-05-10T11:40:02.039Z,18.95
2023-05-10T11:45:01.975Z,19.56
2023-05-10T11:50:01.976Z,19.22
2023-05-10T11:55:01.737Z,19.80
2023-05-10T12:00:01.705Z,19.55
2023-05-10T12:05:01.814Z,20.01
2023-05-10T12:10:01.569Z,19.44
2023-05-10T12:15:01.557Z,19.50
2023-05-10T12:20:01.463Z,19.54
2023-05-10T12:25:01.419Z,19.59
2023-05-10T12:30:01.409Z,20.13
2023-05-10T12:35:01.374Z,19.59
2023-05-10T12:40:01.255Z,18.81
2023-05-10T12:45:01.212Z,18.85
2023-05-10T12:50:01.158Z,19.44
2023-05-10T12:55:01.116Z,20.28
2023-05-10T13:00:01.051Z,20.73
2023-05-10T13:05:01.139Z,20.31
2023-05-10T13:10:00.997Z,20.61
2023-05-10T13:15:00.982Z,20.91
2023-05-10T13:20:00.865Z,20.87
2023-05-10T13:25:00.817Z,21.42
2023-05-10T13:30:00.768Z,21.35
2023-05-10T13:35:00.699Z,21.53
2023-05-10T13:40:00.750Z,21.21
2023-05-10T13:45:00.709Z,21.27
2023-05-10T13:50:00.611Z,21.64
2023-05-10T13:55:00.524Z,22.09
2023-05-10T14:00:00.487Z,21.69
2023-05-10T14:05:00.452Z,21.56
2023-05-10T14:10:00.292Z,21.28
2023-05-10T14:15:00.278Z,21.53
2023-05-10T14:20:00.187Z,21.64
2023-05-10T14:25:00.130Z,21.72
2023-05-10T14:30:00.140Z,21.37
2023-05-10T14:35:00.026Z,21.09
2023-05-10T14:39:59.984Z,21.22
2023-05-10T14:44:59.925Z,20.99
2023-05-10T14:49:59.874Z,21.82
2023-05-10T14:54:59.772Z,21.86
2023-05-10T14:59:59.928Z,21.37
2023-05-10T15:04:59.777Z,21.61
2023-05-10T15:09:59.720Z,22.42
2023-05-10T15:14:59.753Z,22.47
2023-05-10T15:20:00.654Z,22.40
2023-05-10T15:24:59.607Z,21.44
2023-05-10T15:29:59.429Z,21.25
2023-05-10T15:34:59.372Z,21.58
2023-05-10T15:39:59.414Z,21.12
2023-05-10T15:44:59.258Z,21.52
2023-05-10T15:49:59.272Z,21.68
2023-05-10T15:54:59.167Z,21.65
2023-05-10T15:59:59.075Z,21.37
2023-05-10T16:04:59.037Z,21.04
2023-05-10T16:09:58.996Z,20.38
2023-05-10T16:14:58.927Z,20.70
2023-05-10T16:19:59.022Z,20.59
2023-05-10T16:24:58.931Z,20.61
2023-05-10T16:29:58.844Z,20.35
2023-05-10T16:34:58.808Z,19.86
2023-05-10T16:40:07.566Z,20.50
2023-05-10T16:44:58.626Z,20.23
2023-05-10T16:49:58.662Z,19.99
2023-05-10T16:54:58.517Z,19.61
2023-05-10T16:59:58.534Z,18.95
2023-05-10T17:04:58.419Z,18.48
2023-05-10T17:09:58.358Z,18.26
2023-05-10T17:14:58.342Z,18.27
2023-05-10T17:19:58.280Z,18.07
2023-05-10T17:24:58.196Z,17.96
2023-05-10T17:29:58.359Z,17.81
2023-05-10T17:34:58.144Z,17.92
2023-05-10T17:39:58.041Z,17.97
2023-05-10T17:44:58.013Z,17.59
2023-05-10T17:49:57.941Z,17.16
2023-05-10T17:54:57.871Z,17.28
2023-05-10T17:59:57.795Z,17.31
2023-05-10T18:04:59.842Z,17.38
2023-05-10T18:09:57.723Z,17.33
2023-05-10T18:14:57.816Z,17.16
2023-05-10T18:19:57.690Z,17.07
2023-05-10T18:24:57.667Z,17.04
2023-05-10T18:29:57.564Z,16.93
2023-05-10T18:34:57.493Z,16.79
2023-05-10T18:39:57.425Z,16.88
2023-05-10T18:44:57.371Z,16.86
2023-05-10T18:49:57.425Z,16.82
2023-05-10T18:54:57.191Z,16.70
2023-05-10T18:59:57.228Z,16.82
2023-05-10T19:04:57.183Z,16.68
2023-05-10T19:09:57.066Z,16.45
2023-05-10T19:14:57.045Z,16.66
2023-05-10T19:19:56.942Z,16.60
2023-05-10T19:24:57.955Z,16.64
2023-05-10T19:29:56.835Z,16.71
2023-05-10T19:34:57.810Z,16.71
2023-05-10T19:39:56.812Z,16.64
2023-05-10T19:44:57.501Z,16.66
2023-05-10T19:49:56.635Z,16.49
2023-05-10T19:54:56.528Z,16.45
2023-05-10T19:59:56.530Z,16.52
2023-05-10T20:04:56.402Z,16.52
2023-05-10T20:11:31.998Z,16.52
2023-05-10T20:16:31.934Z,16.30
2023-05-10T20:21:31.903Z,16.15
2023-05-10T20:26:35.945Z,16.14
2023-05-10T20:31:32.098Z,15.74
2023-05-10T20:36:37.354Z,15.57
2023-05-10T20:41:31.693Z,15.80
2023-05-10T20:46:31.702Z,15.83
2023-05-10T20:51:31.680Z,15.76
2023-05-10T20:56:31.480Z,15.64
2023-05-10T21:01:31.449Z,15.57
2023-05-10T21:06:31.395Z,15.53
2023-05-10T21:11:31.302Z,15.50
2023-05-10T21:16:31.447Z,15.39
2023-05-10T21:21:31.280Z,15.35
2023-05-10T21:26:31.274Z,15.14
2023-05-10T21:31:31.397Z,15.13
2023-05-10T21:36:31.134Z,15.14
2023-05-10T21:41:31.150Z,15.07
2023-05-10T21:46:30.986Z,15.06
2023-05-10T21:51:30.916Z,15.03
2023-05-10T21:56:30.852Z,15.10
2023-05-10T22:01:30.842Z,15.09
2023-05-10T22:06:30.707Z,15.11
2023-05-10T22:11:30.965Z,15.13
2023-05-10T22:16:30.824Z,15.16
2023-05-10T22:21:30.591Z,15.11
2023-05-10T22:26:30.556Z,15.10
2023-05-10T22:31:30.540Z,15.13
2023-05-10T22:36:30.433Z,15.06
2023-05-10T22:41:39.205Z,15.06
2023-05-10T22:46:30.319Z,15.06
2023-05-10T22:51:30.213Z,15.09
2023-05-10T22:56:30.170Z,14.95
2023-05-10T23:01:30.266Z,15.06
2023-05-10T23:06:31.181Z,14.80
2023-05-10T23:11:30.110Z,14.68
2023-05-10T23:16:30.052Z,14.95
2023-05-10T23:21:32.028Z,15.11
2023-05-10T23:26:29.951Z,15.10
2023-05-10T23:31:29.821Z,14.99
2023-05-10T23:36:29.766Z,15.02
2023-05-10T23:41:29.708Z,15.06
2023-05-10T23:46:29.655Z,15.16
2023-05-10T23:51:29.563Z,15.16
2023-05-10T23:56:29.495Z,15.16
